createdAt,value
2019-03-01T00:00:44.023Z,0.00
2019-03-01T00:01:44.049Z,0.00
2019-03-01T00:02:44.108Z,0.00
2019-03-01T00:03:44.095Z,0.00
2019-03-01T00:04:44.125Z,0.00
2019-03-01T00:05:44.143Z,0.00
2019-03-01T00:06:44.165Z,0.00
2019-03-01T00:07:44.195Z,0.00
2019-03-01T00:08:44.221Z,0.00
2019-03-01T00:09:44.238Z,0.00
2019-03-01T00:10:44.267Z,0.00
2019-03-01T00:11:44.298Z,0.00
2019-03-01T00:12:44.314Z,0.00
2019-03-01T00:13:44.334Z,0.00
2019-03-01T00:14:44.358Z,0.00
2019-03-01T00:15:44.381Z,0.00
2019-03-01T00:16:44.405Z,0.00
2019-03-01T00:17:44.430Z,0.00
2019-03-01T00:18:44.452Z,0.00
2019-03-01T00:19:44.480Z,0.00
2019-03-01T00:20:44.501Z,0.00
2019-03-01T00:21:44.525Z,0.00
2019-03-01T00:22:44.549Z,0.00
2019-03-01T00:23:44.573Z,0.00
2019-03-01T00:24:44.595Z,0.00
2019-03-01T00:25:44.620Z,0.00
2019-03-01T00:26:44.646Z,0.00
2019-03-01T00:27:44.674Z,0.00
2019-03-01T00:28:44.697Z,0.00
2019-03-01T00:29:44.715Z,0.00
2019-03-01T00:30:44.740Z,0.00
2019-03-01T00:31:44.764Z,0.00
2019-03-01T00:32:44.791Z,0.00
2019-03-01T00:33:44.814Z,0.00
2019-03-01T00:34:44.837Z,0.00
2019-03-01T00:35:44.865Z,0.00
2019-03-01T00:36:44.887Z,0.00
2019-03-01T00:37:44.908Z,0.00
2019-03-01T00:38:44.933Z,0.00
2019-03-01T00:39:44.958Z,0.00
2019-03-01T00:40:44.984Z,0.00
2019-03-01T00:41:45.003Z,0.00
2019-03-01T00:42:45.028Z,0.00
2019-03-01T00:43:45.050Z,0.00
2019-03-01T00:44:45.072Z,0.00
2019-03-01T00:45:45.098Z,0.00
2019-03-01T00:46:45.126Z,0.00
2019-03-01T00:47:45.146Z,0.00
2019-03-01T00:48:45.171Z,0.00
2019-03-01T00:49:45.193Z,0.00
2019-03-01T00:50:45.217Z,0.00
2019-03-01T00:51:45.242Z,0.00
2019-03-01T00:52:45.262Z,0.00
2019-03-01T00:53:45.289Z,0.00
2019-03-01T00:54:45.313Z,0.00
2019-03-01T00:55:45.336Z,0.00
2019-03-01T00:56:45.361Z,0.00
2019-03-01T00:57:45.387Z,0.00
2019-03-01T00:58:45.412Z,0.00
2019-03-01T00:59:45.434Z,0.00
2019-03-01T01:00:45.455Z,0.00
2019-03-01T01:01:45.483Z,0.00
2019-03-01T01:02:45.504Z,0.00
2019-03-01T01:03:45.532Z,0.00
2019-03-01T01:04:45.553Z,0.00
2019-03-01T01:05:45.575Z,0.00
2019-03-01T01:06:45.612Z,0.00
2019-03-01T01:07:45.641Z,0.00
2019-03-01T01:08:45.658Z,0.00
2019-03-01T01:10:38.087Z,0.00
2019-03-01T01:10:45.699Z,0.00
2019-03-01T01:12:18.930Z,0.00
2019-03-01T01:12:45.743Z,0.00
2019-03-01T01:13:45.767Z,0.00
2019-03-01T01:14:45.799Z,0.00
2019-03-01T01:15:45.817Z,0.00
2019-03-01T01:16:45.839Z,0.00
2019-03-01T01:17:45.863Z,0.00
2019-03-01T01:18:45.890Z,0.00
2019-03-01T01:19:45.915Z,0.00
2019-03-01T01:20:45.934Z,0.00
2019-03-01T01:21:45.960Z,0.00
2019-03-01T01:22:45.984Z,0.00
2019-03-01T01:23:46.008Z,0.00
2019-03-01T01:24:46.030Z,0.00
2019-03-01T01:25:46.055Z,0.00
2019-03-01T01:26:46.081Z,0.00
2019-03-01T01:27:46.102Z,0.00
2019-03-01T01:28:46.129Z,0.00
2019-03-01T01:29:46.152Z,0.00
2019-03-01T01:30:46.173Z,0.00
2019-03-01T01:31:46.198Z,0.00
2019-03-01T01:32:46.222Z,0.00
2019-03-01T01:33:46.246Z,0.00
2019-03-01T01:34:46.269Z,0.00
2019-03-01T01:35:46.291Z,0.00
2019-03-01T01:36:46.315Z,0.00
2019-03-01T01:37:46.347Z,0.00
2019-03-01T01:38:46.364Z,0.00
2019-03-01T01:39:46.391Z,0.00
2019-03-01T01:40:46.415Z,0.00
2019-03-01T01:41:46.435Z,0.00
2019-03-01T01:42:46.460Z,0.00
2019-03-01T01:43:46.485Z,0.00
2019-03-01T01:44:46.507Z,0.00
2019-03-01T01:45:46.544Z,0.00
2019-03-01T01:46:46.558Z,0.00
2019-03-01T01:47:46.579Z,0.00
2019-03-01T01:48:46.606Z,0.00
2019-03-01T01:49:46.625Z,0.00
2019-03-01T01:50:46.648Z,0.00
2019-03-01T01:51:46.676Z,0.00
2019-03-01T01:52:46.696Z,0.00
2019-03-01T01:53:46.723Z,0.00
2019-03-01T01:54:46.747Z,0.00
2019-03-01T01:55:46.769Z,0.00
2019-03-01T01:56:46.794Z,0.00
2019-03-01T01:57:46.814Z,0.00
2019-03-01T01:58:46.839Z,0.00
2019-03-01T01:59:46.863Z,0.00
2019-03-01T02:00:46.886Z,0.00
2019-03-01T02:01:46.909Z,0.00
2019-03-01T02:02:46.934Z,0.00
2019-03-01T02:03:46.957Z,0.00
2019-03-01T02:04:46.984Z,0.00
2019-03-01T02:05:47.005Z,0.00
2019-03-01T02:06:47.028Z,0.00
2019-03-01T02:07:47.054Z,0.00
2019-03-01T02:08:47.076Z,0.00
2019-03-01T02:09:47.100Z,0.00
2019-03-01T02:10:47.132Z,0.00
2019-03-01T02:11:47.149Z,0.00
2019-03-01T02:12:47.171Z,0.00
2019-03-01T02:13:47.195Z,0.00
2019-03-01T02:14:47.221Z,0.00
2019-03-01T02:15:47.242Z,0.00
2019-03-01T02:16:47.266Z,0.00
2019-03-01T02:17:47.293Z,0.00
2019-03-01T02:18:47.315Z,0.00
2019-03-01T02:19:47.338Z,0.00
2019-03-01T02:20:47.363Z,0.00
2019-03-01T02:21:47.386Z,0.00
2019-03-01T02:22:47.412Z,0.00
2019-03-01T02:23:47.436Z,0.00
2019-03-01T02:24:47.458Z,0.00
2019-03-01T02:25:47.483Z,0.00
2019-03-01T02:26:47.504Z,0.00
2019-03-01T02:27:47.530Z,0.00
2019-03-01T02:28:47.551Z,0.00
2019-03-01T02:29:47.576Z,0.00
2019-03-01T02:30:47.597Z,0.00
2019-03-01T02:31:47.625Z,0.00
2019-03-01T02:32:47.654Z,0.00
2019-03-01T02:33:47.669Z,0.00
2019-03-01T02:34:47.695Z,0.00
2019-03-01T02:35:47.720Z,0.00
2019-03-01T02:36:47.745Z,0.00
2019-03-01T02:37:47.765Z,0.00
2019-03-01T02:38:47.793Z,0.00
2019-03-01T02:39:47.816Z,0.00
2019-03-01T02:40:47.887Z,0.00
2019-03-01T02:41:47.857Z,0.00
2019-03-01T02:42:47.884Z,0.00
2019-03-01T02:43:47.911Z,0.00
2019-03-01T02:44:47.931Z,0.00
2019-03-01T02:45:47.954Z,0.00
2019-03-01T02:46:47.977Z,0.00
2019-03-01T02:47:48.000Z,0.00
2019-03-01T02:48:48.025Z,0.00
2019-03-01T02:49:48.057Z,0.00
2019-03-01T02:50:48.076Z,0.00
2019-03-01T02:51:48.095Z,0.00
2019-03-01T02:52:48.137Z,0.00
2019-03-01T02:53:48.142Z,0.00
2019-03-01T02:54:48.170Z,0.00
2019-03-01T02:55:48.197Z,0.00
2019-03-01T02:56:48.318Z,0.00
2019-03-01T02:57:48.238Z,0.00
2019-03-01T02:58:48.265Z,0.00
2019-03-01T02:59:48.287Z,0.00
2019-03-01T03:00:48.309Z,0.00
2019-03-01T03:01:48.337Z,0.00
2019-03-01T03:02:48.367Z,0.00
2019-03-01T03:03:48.380Z,0.00
2019-03-01T03:04:48.406Z,0.00
2019-03-01T03:05:48.480Z,0.00
2019-03-01T03:06:48.455Z,0.00
2019-03-01T03:07:48.477Z,0.00
2019-03-01T03:08:48.500Z,0.00
2019-03-01T03:09:48.524Z,0.00
2019-03-01T03:10:48.549Z,0.00
2019-03-01T03:11:48.568Z,0.00
2019-03-01T03:12:48.593Z,0.00
2019-03-01T03:13:48.620Z,0.00
2019-03-01T03:14:48.639Z,0.00
2019-03-01T03:15:48.668Z,0.00
2019-03-01T03:16:48.689Z,0.00
2019-03-01T03:17:48.713Z,0.00
2019-03-01T03:18:48.738Z,0.00
2019-03-01T03:19:48.762Z,0.00
2019-03-01T03:20:48.784Z,0.00
2019-03-01T03:21:48.807Z,0.00
2019-03-01T03:22:48.832Z,0.00
2019-03-01T03:23:48.871Z,0.00
2019-03-01T03:24:48.887Z,0.00
2019-03-01T03:25:48.909Z,0.00
2019-03-01T03:26:48.925Z,0.00
2019-03-01T03:27:48.962Z,0.00
2019-03-01T03:28:48.975Z,0.00
2019-03-01T03:29:48.998Z,0.00
2019-03-01T03:30:49.025Z,0.00
2019-03-01T03:31:49.049Z,0.00
2019-03-01T03:32:49.082Z,0.00
2019-03-01T03:33:49.094Z,0.00
2019-03-01T03:34:49.121Z,0.00
2019-03-01T03:35:49.146Z,0.00
2019-03-01T03:36:49.160Z,0.00
2019-03-01T03:37:49.185Z,0.00
2019-03-01T03:38:49.217Z,0.00
2019-03-01T03:39:49.237Z,0.00
2019-03-01T03:40:49.255Z,0.00
2019-03-01T03:41:49.278Z,0.00
2019-03-01T03:42:49.305Z,0.00
2019-03-01T03:43:49.338Z,0.00
2019-03-01T03:44:49.348Z,0.00
2019-03-01T03:45:49.374Z,0.00
2019-03-01T03:46:49.397Z,0.00
2019-03-01T03:47:49.466Z,0.00
2019-03-01T03:48:49.441Z,0.00
2019-03-01T03:49:49.464Z,0.00
2019-03-01T03:50:49.493Z,0.00
2019-03-01T03:51:49.514Z,0.00
2019-03-01T03:52:49.536Z,0.00
2019-03-01T03:53:49.560Z,0.00
2019-03-01T03:54:49.593Z,0.00
2019-03-01T03:55:49.607Z,0.00
2019-03-01T03:56:49.628Z,0.00
2019-03-01T03:57:49.655Z,0.00
2019-03-01T03:58:49.675Z,0.00
2019-03-01T03:59:49.719Z,0.00
2019-03-01T04:00:49.721Z,0.00
2019-03-01T04:01:49.746Z,0.00
2019-03-01T04:02:49.770Z,0.00
2019-03-01T04:03:49.793Z,0.00
2019-03-01T04:04:49.815Z,0.00
2019-03-01T04:05:49.837Z,0.00
2019-03-01T04:06:49.862Z,0.00
2019-03-01T04:07:49.896Z,0.00
2019-03-01T04:08:49.909Z,0.00
2019-03-01T04:09:49.931Z,0.00
2019-03-01T04:10:49.953Z,0.00
2019-03-01T04:11:49.979Z,0.00
2019-03-01T04:12:50.003Z,0.00
2019-03-01T04:13:50.043Z,0.00
2019-03-01T04:14:50.066Z,0.00
2019-03-01T04:15:50.070Z,0.00
2019-03-01T04:16:50.102Z,0.00
2019-03-01T04:17:50.118Z,0.00
2019-03-01T04:18:50.141Z,0.00
2019-03-01T04:19:50.173Z,0.00
2019-03-01T04:20:50.193Z,0.00
2019-03-01T04:21:50.209Z,0.00
2019-03-01T04:22:50.232Z,0.00
2019-03-01T04:23:50.264Z,0.00
2019-03-01T04:24:50.285Z,0.00
2019-03-01T04:25:50.301Z,0.00
2019-03-01T04:26:50.326Z,0.00
2019-03-01T04:27:50.352Z,0.00
2019-03-01T04:28:50.376Z,0.00
2019-03-01T04:29:50.394Z,0.00
2019-03-01T04:30:50.418Z,0.00
2019-03-01T04:31:50.444Z,0.00
2019-03-01T04:32:50.465Z,0.00
2019-03-01T04:33:50.488Z,0.00
2019-03-01T04:34:50.517Z,0.00
2019-03-01T04:35:50.540Z,0.00
2019-03-01T04:36:50.558Z,0.00
2019-03-01T04:37:50.582Z,0.00
2019-03-01T04:38:50.602Z,0.00
2019-03-01T04:39:50.625Z,0.00
2019-03-01T04:40:50.650Z,0.00
2019-03-01T04:41:50.670Z,0.00
2019-03-01T04:42:50.695Z,0.00
2019-03-01T04:43:50.718Z,4.00
2019-03-01T04:44:50.739Z,4.00
2019-03-01T04:45:50.762Z,4.00
2019-03-01T04:46:50.788Z,0.00
2019-03-01T04:47:50.809Z,4.00
2019-03-01T04:48:50.834Z,4.00
2019-03-01T04:49:50.860Z,4.00
2019-03-01T04:50:50.881Z,4.00
2019-03-01T04:51:50.905Z,8.00
2019-03-01T04:52:50.925Z,4.00
2019-03-01T04:53:50.950Z,8.00
2019-03-01T04:54:50.974Z,8.00
2019-03-01T04:55:50.994Z,8.00
2019-03-01T04:56:51.020Z,12.00
2019-03-01T04:57:51.040Z,16.00
2019-03-01T04:58:51.061Z,20.00
2019-03-01T04:59:51.085Z,28.00
2019-03-01T05:00:51.107Z,32.00
2019-03-01T05:01:51.135Z,36.00
2019-03-01T05:02:51.153Z,44.00
2019-03-01T05:03:51.177Z,48.00
2019-03-01T05:04:51.198Z,52.00
2019-03-01T05:05:51.225Z,60.00
2019-03-01T05:06:51.252Z,68.00
2019-03-01T05:07:51.268Z,76.00
2019-03-01T05:08:51.292Z,88.00
2019-03-01T05:09:51.312Z,104.00
2019-03-01T05:10:51.336Z,112.00
2019-03-01T05:11:51.359Z,124.00
2019-03-01T05:12:51.380Z,140.00
2019-03-01T05:13:51.409Z,164.00
2019-03-01T05:14:51.430Z,184.00
2019-03-01T05:15:51.452Z,200.00
2019-03-01T05:16:51.474Z,224.00
2019-03-01T05:17:51.500Z,256.00
2019-03-01T05:18:51.522Z,280.00
2019-03-01T05:19:51.543Z,300.00
2019-03-01T05:20:51.566Z,328.00
2019-03-01T05:21:51.589Z,348.00
2019-03-01T05:22:51.638Z,376.00
2019-03-01T05:23:51.634Z,400.00
2019-03-01T05:24:51.655Z,420.00
2019-03-01T05:25:51.684Z,448.00
2019-03-01T05:26:51.702Z,504.00
2019-03-01T05:27:51.727Z,556.00
2019-03-01T05:28:51.749Z,616.00
2019-03-01T05:29:51.769Z,688.00
2019-03-01T05:30:51.793Z,752.00
2019-03-01T05:31:51.815Z,800.00
2019-03-01T05:32:51.839Z,840.00
2019-03-01T05:33:51.864Z,880.00
2019-03-01T05:34:51.886Z,928.00
2019-03-01T05:35:51.909Z,996.00
2019-03-01T05:36:51.928Z,1024.00
2019-03-01T05:37:51.951Z,1036.00
2019-03-01T05:38:51.978Z,1060.00
2019-03-01T05:39:51.997Z,1088.00
2019-03-01T05:40:52.022Z,1124.00
2019-03-01T05:41:52.047Z,1148.00
2019-03-01T05:42:52.067Z,1196.00
2019-03-01T05:43:52.089Z,1296.00
2019-03-01T05:44:52.111Z,1352.00
2019-03-01T05:45:52.134Z,1420.00
2019-03-01T05:46:52.157Z,1464.00
2019-03-01T05:47:52.179Z,1596.00
2019-03-01T05:48:52.204Z,1720.00
2019-03-01T05:49:52.226Z,1816.00
2019-03-01T05:50:52.249Z,1924.00
2019-03-01T05:51:52.270Z,2000.00
2019-03-01T05:52:52.293Z,2072.00
2019-03-01T05:53:52.317Z,2116.00
2019-03-01T05:54:52.343Z,2184.00
2019-03-01T05:55:52.365Z,2272.00
2019-03-01T05:56:52.387Z,2396.00
2019-03-01T05:57:52.409Z,2496.00
2019-03-01T05:58:52.430Z,2564.00
2019-03-01T05:59:52.455Z,2612.00
2019-03-01T06:00:52.479Z,2724.00
2019-03-01T06:01:52.500Z,2840.00
2019-03-01T06:02:52.525Z,3044.00
2019-03-01T06:03:52.546Z,3240.00
2019-03-01T06:04:52.575Z,3208.00
2019-03-01T06:05:52.591Z,3208.00
2019-03-01T06:06:52.616Z,3264.00
2019-03-01T06:07:52.638Z,3392.00
2019-03-01T06:08:52.660Z,3480.00
2019-03-01T06:09:52.681Z,3548.00
2019-03-01T06:10:52.708Z,3640.00
2019-03-01T06:11:52.732Z,3772.00
2019-03-01T06:12:52.755Z,3968.00
2019-03-01T06:13:52.778Z,4184.00
2019-03-01T06:14:52.798Z,4244.00
2019-03-01T06:15:52.825Z,4268.00
2019-03-01T06:16:52.845Z,4496.00
2019-03-01T06:17:52.868Z,5352.00
2019-03-01T06:18:52.891Z,6656.00
2019-03-01T06:19:52.916Z,5636.00
2019-03-01T06:20:52.940Z,5716.00
2019-03-01T06:21:52.961Z,5752.00
2019-03-01T06:22:52.986Z,6496.00
2019-03-01T06:23:53.009Z,7204.00
2019-03-01T06:24:53.033Z,7384.00
2019-03-01T06:25:53.065Z,5856.00
2019-03-01T06:26:53.080Z,5816.00
2019-03-01T06:27:53.102Z,5524.00
2019-03-01T06:28:53.125Z,5648.00
2019-03-01T06:29:53.149Z,6124.00
2019-03-01T06:30:53.174Z,6536.00
2019-03-01T06:31:53.199Z,6456.00
2019-03-01T06:32:53.220Z,6488.00
2019-03-01T06:33:53.247Z,6676.00
2019-03-01T06:34:53.272Z,6776.00
2019-03-01T06:35:53.295Z,7044.00
2019-03-01T06:36:53.320Z,7572.00
2019-03-01T06:37:53.344Z,7844.00
2019-03-01T06:38:53.369Z,7568.00
2019-03-01T06:39:53.390Z,7312.00
2019-03-01T06:40:53.417Z,7368.00
2019-03-01T06:41:53.439Z,7828.00
2019-03-01T06:42:53.465Z,8280.00
2019-03-01T06:43:53.486Z,9740.00
2019-03-01T06:44:53.512Z,10500.00
2019-03-01T06:45:53.534Z,9852.00
2019-03-01T06:46:53.561Z,9020.00
2019-03-01T06:47:53.583Z,8508.00
2019-03-01T06:48:53.611Z,9408.00
2019-03-01T06:49:53.630Z,8552.00
2019-03-01T06:50:53.657Z,7568.00
2019-03-01T06:51:53.681Z,8124.00
2019-03-01T06:52:53.703Z,7316.00
2019-03-01T06:53:53.731Z,9620.00
2019-03-01T06:54:53.759Z,8884.00
2019-03-01T06:55:53.779Z,9452.00
2019-03-01T06:56:53.803Z,10960.00
2019-03-01T06:57:53.830Z,12532.00
2019-03-01T06:58:53.852Z,12456.00
2019-03-01T06:59:53.878Z,11572.00
2019-03-01T07:00:53.903Z,11220.00
2019-03-01T07:01:53.928Z,11008.00
2019-03-01T07:02:53.951Z,14816.00
2019-03-01T07:03:53.978Z,14848.00
2019-03-01T07:04:54.002Z,13192.00
2019-03-01T07:06:02.945Z,10928.00
2019-03-01T07:06:54.051Z,11248.00
2019-03-01T07:07:54.078Z,12552.00
2019-03-01T07:08:54.105Z,11772.00
2019-03-01T07:09:54.132Z,11876.00
2019-03-01T07:10:54.155Z,11984.00
2019-03-01T07:11:54.182Z,11704.00
2019-03-01T07:12:54.209Z,11520.00
2019-03-01T07:13:54.232Z,11312.00
2019-03-01T07:14:54.260Z,11128.00
2019-03-01T07:15:54.286Z,10996.00
2019-03-01T07:16:54.313Z,11156.00
2019-03-01T07:17:54.338Z,10736.00
2019-03-01T07:18:54.360Z,10440.00
2019-03-01T07:19:54.389Z,10300.00
2019-03-01T07:20:54.411Z,9780.00
2019-03-01T07:21:54.435Z,10200.00
2019-03-01T07:22:54.464Z,11400.00
2019-03-01T07:23:54.487Z,12736.00
2019-03-01T07:24:54.512Z,13836.00
2019-03-01T07:25:54.980Z,13096.00
2019-03-01T07:26:54.562Z,11616.00
2019-03-01T07:27:54.589Z,11732.00
2019-03-01T07:28:54.617Z,14420.00
2019-03-01T07:29:54.644Z,15028.00
2019-03-01T07:30:54.667Z,14896.00
2019-03-01T07:31:54.694Z,14412.00
2019-03-01T07:32:54.717Z,14908.00
2019-03-01T07:33:54.748Z,15096.00
2019-03-01T07:34:54.769Z,16128.00
2019-03-01T07:35:54.794Z,15492.00
2019-03-01T07:36:54.818Z,15888.00
2019-03-01T07:37:54.854Z,13924.00
2019-03-01T07:38:54.868Z,12460.00
2019-03-01T07:39:54.896Z,12460.00
2019-03-01T07:40:54.918Z,13336.00
2019-03-01T07:41:54.949Z,13936.00
2019-03-01T07:42:54.973Z,13292.00
2019-03-01T07:43:54.996Z,12268.00
2019-03-01T07:44:55.021Z,12276.00
2019-03-01T07:45:55.048Z,12964.00
2019-03-01T07:46:55.075Z,13584.00
2019-03-01T07:47:55.098Z,13428.00
2019-03-01T07:48:55.137Z,12884.00
2019-03-01T07:49:55.149Z,12664.00
2019-03-01T07:50:56.025Z,12976.00
2019-03-01T07:51:55.204Z,13120.00
2019-03-01T07:52:55.227Z,12488.00
2019-03-01T07:53:55.253Z,11388.00
2019-03-01T07:54:55.287Z,10828.00
2019-03-01T07:55:55.304Z,10668.00
2019-03-01T07:56:55.328Z,10912.00
2019-03-01T07:57:55.356Z,11404.00
2019-03-01T07:58:57.449Z,11176.00
2019-03-01T07:59:55.407Z,10748.00
2019-03-01T08:00:55.427Z,11060.00
2019-03-01T08:01:55.999Z,11672.00
2019-03-01T08:02:55.481Z,11444.00
2019-03-01T08:03:55.507Z,11084.00
2019-03-01T08:04:55.531Z,11192.00
2019-03-01T08:05:55.553Z,11300.00
2019-03-01T08:06:55.582Z,11252.00
2019-03-01T08:07:56.617Z,11620.00
2019-03-01T08:08:55.631Z,12336.00
2019-03-01T08:09:55.653Z,13000.00
2019-03-01T08:10:56.533Z,13404.00
2019-03-01T08:11:55.704Z,14224.00
2019-03-01T08:12:55.733Z,15004.00
2019-03-01T08:13:55.759Z,15928.00
2019-03-01T08:14:55.779Z,17216.00
2019-03-01T08:15:55.802Z,17376.00
2019-03-01T08:16:56.750Z,16832.00
2019-03-01T08:17:55.859Z,16008.00
2019-03-01T08:18:55.882Z,15532.00
2019-03-01T08:19:58.659Z,15520.00
2019-03-01T08:20:55.929Z,14972.00
2019-03-01T08:21:55.960Z,14884.00
2019-03-01T08:22:56.810Z,15004.00
2019-03-01T08:23:56.008Z,14436.00
2019-03-01T08:24:56.031Z,13792.00
2019-03-01T08:25:58.740Z,13992.00
2019-03-01T08:26:57.104Z,14780.00
2019-03-01T08:27:56.106Z,15664.00
2019-03-01T08:28:58.538Z,15916.00
2019-03-01T08:29:56.155Z,16072.00
2019-03-01T08:30:56.181Z,16356.00
2019-03-01T08:31:56.716Z,16736.00
2019-03-01T08:32:56.228Z,16960.00
2019-03-01T08:33:56.257Z,16348.00
2019-03-01T08:34:56.281Z,15556.00
2019-03-01T08:35:56.308Z,15268.00
2019-03-01T08:36:56.332Z,15556.00
2019-03-01T08:37:56.356Z,15316.00
2019-03-01T08:38:56.388Z,14588.00
2019-03-01T08:39:56.411Z,13832.00
2019-03-01T08:40:56.432Z,14016.00
2019-03-01T08:42:00.250Z,14508.00
2019-03-01T08:42:56.484Z,15096.00
2019-03-01T08:43:56.510Z,14480.00
2019-03-01T08:44:58.284Z,13352.00
2019-03-01T08:45:56.561Z,13612.00
2019-03-01T08:46:56.590Z,14444.00
2019-03-01T08:47:58.744Z,15416.00
2019-03-01T08:48:56.635Z,15976.00
2019-03-01T08:49:56.659Z,17120.00
2019-03-01T08:50:56.687Z,17824.00
2019-03-01T08:51:58.548Z,18368.00
2019-03-01T08:52:56.739Z,18112.00
2019-03-01T08:53:56.760Z,16896.00
2019-03-01T08:55:00.027Z,16584.00
2019-03-01T08:55:56.812Z,17856.00
2019-03-01T08:56:56.839Z,19008.00
2019-03-01T08:57:59.676Z,19776.00
2019-03-01T08:58:56.891Z,21280.00
2019-03-01T08:59:56.913Z,26016.00
2019-03-01T09:00:59.929Z,22912.00
2019-03-01T09:01:56.962Z,22464.00
2019-03-01T09:02:56.991Z,24032.00
2019-03-01T09:03:57.015Z,33440.00
2019-03-01T09:04:57.041Z,32704.00
2019-03-01T09:05:57.067Z,28896.00
2019-03-01T09:06:57.092Z,35200.00
2019-03-01T09:07:57.136Z,28160.00
2019-03-01T09:08:57.145Z,27200.00
2019-03-01T09:09:58.018Z,23136.00
2019-03-01T09:10:57.231Z,23840.00
2019-03-01T09:11:57.224Z,24192.00
2019-03-01T09:12:57.255Z,23424.00
2019-03-01T09:13:57.279Z,24224.00
2019-03-01T09:14:57.311Z,22720.00
2019-03-01T09:15:57.334Z,24192.00
2019-03-01T09:16:57.361Z,23392.00
2019-03-01T09:17:57.386Z,21472.00
2019-03-01T09:18:57.415Z,22688.00
2019-03-01T09:20:00.163Z,24512.00
2019-03-01T09:21:04.521Z,24800.00
2019-03-01T09:21:57.495Z,22560.00
2019-03-01T09:22:57.524Z,25888.00
2019-03-01T09:23:57.551Z,30848.00
2019-03-01T09:24:57.598Z,25728.00
2019-03-01T09:25:57.606Z,34592.00
2019-03-01T09:26:57.634Z,35392.00
2019-03-01T09:27:57.741Z,45856.00
2019-03-01T09:28:57.685Z,40992.00
2019-03-01T09:29:59.052Z,45440.00
2019-03-01T09:30:57.743Z,26592.00
2019-03-01T09:31:58.676Z,14596.00
2019-03-01T09:32:57.798Z,12892.00
2019-03-01T09:33:57.827Z,33280.00
2019-03-01T09:34:57.854Z,12680.00
2019-03-01T09:35:57.887Z,13096.00
2019-03-01T09:36:57.909Z,55872.00
2019-03-01T09:37:57.938Z,57248.00
2019-03-01T09:38:57.967Z,59680.00
2019-03-01T09:40:05.278Z,61760.00
2019-03-01T09:41:01.253Z,60128.00
2019-03-01T09:42:03.550Z,59488.00
2019-03-01T09:42:58.081Z,58816.00
2019-03-01T09:43:59.653Z,53152.00
2019-03-01T09:44:58.135Z,46240.00
2019-03-01T09:45:58.167Z,54976.00
2019-03-01T09:46:58.512Z,49984.00
2019-03-01T09:47:58.231Z,35072.00
2019-03-01T09:48:58.251Z,33312.00
2019-03-01T09:50:00.159Z,59584.00
2019-03-01T09:50:58.313Z,61504.00
2019-03-01T09:51:58.346Z,60032.00
2019-03-01T09:52:58.951Z,19840.00
2019-03-01T09:53:58.404Z,11232.00
2019-03-01T09:54:58.436Z,18560.00
2019-03-01T09:56:00.028Z,59808.00
2019-03-01T09:56:58.494Z,58368.00
2019-03-01T09:57:58.526Z,57280.00
2019-03-01T09:58:58.553Z,55520.00
2019-03-01T09:59:58.586Z,55456.00
2019-03-01T10:00:58.614Z,56256.00
2019-03-01T10:01:58.644Z,56448.00
2019-03-01T10:02:58.689Z,57696.00
2019-03-01T10:03:58.705Z,58304.00
2019-03-01T10:04:58.734Z,57792.00
2019-03-01T10:05:58.765Z,58944.00
2019-03-01T10:06:58.794Z,16700.00
2019-03-01T10:07:58.829Z,18432.00
2019-03-01T10:08:58.858Z,49536.00
2019-03-01T10:09:58.887Z,54752.00
2019-03-01T10:10:58.917Z,54624.00
2019-03-01T10:11:58.955Z,53568.00
2019-03-01T10:12:58.982Z,57056.00
2019-03-01T10:13:59.013Z,56704.00
2019-03-01T10:14:59.044Z,57984.00
2019-03-01T10:15:59.072Z,56992.00
2019-03-01T10:16:59.103Z,54496.00
2019-03-01T10:17:59.138Z,54976.00
2019-03-01T10:18:59.169Z,57536.00
2019-03-01T10:19:59.202Z,58592.00
2019-03-01T10:20:59.226Z,58944.00
2019-03-01T10:21:59.262Z,54944.00
2019-03-01T10:22:59.295Z,53344.00
2019-03-01T10:23:59.321Z,53088.00
2019-03-01T10:24:59.355Z,52672.00
2019-03-01T10:25:59.382Z,53472.00
2019-03-01T10:26:59.416Z,55104.00
2019-03-01T10:27:59.445Z,54176.00
2019-03-01T10:28:59.478Z,56256.00
2019-03-01T10:29:59.507Z,59872.00
2019-03-01T10:30:59.538Z,58752.00
2019-03-01T10:31:59.571Z,58144.00
2019-03-01T10:32:59.602Z,62976.00
2019-03-01T10:33:59.633Z,61920.00
2019-03-01T10:34:59.669Z,56384.00
2019-03-01T10:35:59.700Z,55104.00
2019-03-01T10:36:59.728Z,50240.00
2019-03-01T10:37:59.760Z,23744.00
2019-03-01T10:38:59.793Z,21312.00
2019-03-01T10:39:59.825Z,20608.00
2019-03-01T10:40:59.856Z,20032.00
2019-03-01T10:41:59.889Z,19040.00
2019-03-01T10:42:59.922Z,19008.00
2019-03-01T10:43:59.950Z,17856.00
2019-03-01T10:44:59.982Z,17312.00
2019-03-01T10:46:00.012Z,17824.00
2019-03-01T10:47:00.044Z,17856.00
2019-03-01T10:48:00.076Z,18240.00
2019-03-01T10:49:00.106Z,19424.00
2019-03-01T10:50:00.289Z,20256.00
2019-03-01T10:51:00.163Z,20864.00
2019-03-01T10:52:00.198Z,21408.00
2019-03-01T10:53:00.221Z,22176.00
2019-03-01T10:54:00.249Z,21984.00
2019-03-01T10:55:00.322Z,22688.00
2019-03-01T10:56:00.309Z,23200.00
2019-03-01T10:57:00.336Z,23680.00
2019-03-01T10:58:00.365Z,30208.00
2019-03-01T10:59:00.643Z,25504.00
2019-03-01T11:00:00.419Z,22336.00
2019-03-01T11:01:00.446Z,21280.00
2019-03-01T11:02:00.474Z,20160.00
2019-03-01T11:03:00.511Z,17664.00
2019-03-01T11:04:00.533Z,16132.00
2019-03-01T11:05:00.560Z,15992.00
2019-03-01T11:06:00.586Z,15684.00
2019-03-01T11:07:00.616Z,15600.00
2019-03-01T11:08:00.643Z,16288.00
2019-03-01T11:09:00.670Z,18272.00
2019-03-01T11:10:00.696Z,20480.00
2019-03-01T11:11:00.723Z,21888.00
2019-03-01T11:12:00.750Z,23296.00
2019-03-01T11:13:00.780Z,25376.00
2019-03-01T11:14:00.807Z,24544.00
2019-03-01T11:15:00.835Z,23168.00
2019-03-01T11:16:00.859Z,23520.00
2019-03-01T11:17:00.885Z,23232.00
2019-03-01T11:18:00.911Z,23616.00
2019-03-01T11:19:00.937Z,24544.00
2019-03-01T11:20:00.968Z,23424.00
2019-03-01T11:21:00.992Z,20576.00
2019-03-01T11:22:01.018Z,19360.00
2019-03-01T11:23:01.048Z,19776.00
2019-03-01T11:24:01.072Z,20160.00
2019-03-01T11:25:01.098Z,19392.00
2019-03-01T11:26:01.125Z,18144.00
2019-03-01T11:27:01.154Z,17568.00
2019-03-01T11:28:01.183Z,16928.00
2019-03-01T11:29:01.208Z,16476.00
2019-03-01T11:30:01.234Z,17024.00
2019-03-01T11:31:01.262Z,19680.00
2019-03-01T11:32:01.337Z,23488.00
2019-03-01T11:33:01.314Z,24384.00
2019-03-01T11:34:01.344Z,22784.00
2019-03-01T11:35:01.369Z,21696.00
2019-03-01T11:36:01.395Z,19200.00
2019-03-01T11:37:01.421Z,18304.00
2019-03-01T11:38:01.447Z,18368.00
2019-03-01T11:39:01.477Z,18880.00
2019-03-01T11:40:01.501Z,19872.00
2019-03-01T11:41:01.527Z,20576.00
2019-03-01T11:42:01.555Z,19648.00
2019-03-01T11:43:01.579Z,16640.00
2019-03-01T11:44:01.607Z,13344.00
2019-03-01T11:45:01.635Z,12312.00
2019-03-01T11:46:01.661Z,11604.00
2019-03-01T11:47:01.686Z,10440.00
2019-03-01T11:48:01.712Z,9736.00
2019-03-01T11:49:01.737Z,14080.00
2019-03-01T11:50:01.763Z,17568.00
2019-03-01T11:51:01.791Z,24992.00
2019-03-01T11:52:01.815Z,27968.00
2019-03-01T11:53:01.841Z,25248.00
2019-03-01T11:54:01.867Z,22880.00
2019-03-01T11:55:01.906Z,20384.00
2019-03-01T11:56:01.921Z,18496.00
2019-03-01T11:57:01.948Z,17344.00
2019-03-01T11:58:01.975Z,15848.00
2019-03-01T11:59:02.006Z,15032.00
2019-03-01T12:00:02.031Z,15208.00
2019-03-01T12:01:02.058Z,13924.00
2019-03-01T12:02:02.082Z,12784.00
2019-03-01T12:03:02.118Z,14112.00
2019-03-01T12:04:02.141Z,17952.00
2019-03-01T12:05:02.164Z,20128.00
2019-03-01T12:06:02.190Z,14768.00
2019-03-01T12:07:02.218Z,20384.00
2019-03-01T12:08:02.245Z,18528.00
2019-03-01T12:09:02.270Z,18080.00
2019-03-01T12:10:02.300Z,16392.00
2019-03-01T12:11:02.329Z,20192.00
2019-03-01T12:12:02.352Z,22272.00
2019-03-01T12:13:02.378Z,16380.00
2019-03-01T12:14:02.408Z,16252.00
2019-03-01T12:15:02.441Z,17216.00
2019-03-01T12:16:02.464Z,17824.00
2019-03-01T12:17:02.488Z,17504.00
2019-03-01T12:18:02.519Z,16896.00
2019-03-01T12:19:02.545Z,17856.00
2019-03-01T12:20:02.576Z,19296.00
2019-03-01T12:21:02.603Z,20064.00
2019-03-01T12:22:02.638Z,20096.00
2019-03-01T12:23:02.653Z,18720.00
2019-03-01T12:24:02.681Z,17888.00
2019-03-01T12:25:02.706Z,17088.00